sensor_id;sensor_type;location;lat;lon;timestamp;P1;durP1;ratioP1;P2;durP2;ratioP2
58294;SDS011;45705;55.592;37.460;2022-08-19T00:01:30;18.85;;;9.18;;
58294;SDS011;45705;55.592;37.460;2022-08-19T00:03:57;11.32;;;8.25;;
58294;SDS011;45705;55.592;37.460;2022-08-19T00:06:26;21.42;;;8.48;;
58294;SDS011;45705;55.592;37.460;2022-08-19T00:08:53;14.52;;;8.50;;
58294;SDS011;45705;55.592;37.460;2022-08-19T00:11:22;10.93;;;6.43;;
58294;SDS011;45705;55.592;37.460;2022-08-19T00:13:51;15.18;;;7.35;;
58294;SDS011;45705;55.592;37.460;2022-08-19T00:16:17;10.18;;;6.88;;
58294;SDS011;45705;55.592;37.460;2022-08-19T00:18:44;12.60;;;6.50;;
58294;SDS011;45705;55.592;37.460;2022-08-19T00:21:13;12.30;;;6.18;;
58294;SDS011;45705;55.592;37.460;2022-08-19T00:23:40;11.85;;;6.05;;
58294;SDS011;45705;55.592;37.460;2022-08-19T00:26:09;11.88;;;5.65;;
58294;SDS011;45705;55.592;37.460;2022-08-19T00:28:36;14.90;;;5.57;;
58294;SDS011;45705;55.592;37.460;2022-08-19T00:33:54;10.30;;;5.65;;
58294;SDS011;45705;55.592;37.460;2022-08-19T00:36:20;9.93;;;5.50;;
58294;SDS011;45705;55.592;37.460;2022-08-19T00:38:46;10.13;;;5.53;;
58294;SDS011;45705;55.592;37.460;2022-08-19T00:41:16;10.75;;;5.75;;
58294;SDS011;45705;55.592;37.460;2022-08-19T00:44:08;12.00;;;5.88;;
58294;SDS011;45705;55.592;37.460;2022-08-19T00:46:34;7.38;;;5.70;;
58294;SDS011;45705;55.592;37.460;2022-08-19T00:49:03;12.95;;;5.60;;
58294;SDS011;45705;55.592;37.460;2022-08-19T00:51:35;13.77;;;6.28;;
58294;SDS011;45705;55.592;37.460;2022-08-19T00:54:01;13.38;;;5.97;;
58294;SDS011;45705;55.592;37.460;2022-08-19T00:56:28;13.45;;;6.10;;
58294;SDS011;45705;55.592;37.460;2022-08-19T00:58:56;10.15;;;5.93;;
58294;SDS011;45705;55.592;37.460;2022-08-19T01:01:27;11.35;;;5.45;;
58294;SDS011;45705;55.592;37.460;2022-08-19T01:03:53;10.43;;;6.05;;
58294;SDS011;45705;55.592;37.460;2022-08-19T01:06:18;16.70;;;6.93;;
58294;SDS011;45705;55.592;37.460;2022-08-19T01:08:44;10.95;;;6.57;;
58294;SDS011;45705;55.592;37.460;2022-08-19T01:11:10;14.32;;;6.88;;
58294;SDS011;45705;55.592;37.460;2022-08-19T01:13:37;10.77;;;6.32;;
58294;SDS011;45705;55.592;37.460;2022-08-19T01:16:04;10.82;;;6.10;;
58294;SDS011;45705;55.592;37.460;2022-08-19T01:18:32;8.25;;;6.70;;
58294;SDS011;45705;55.592;37.460;2022-08-19T01:21:16;11.80;;;6.72;;
58294;SDS011;45705;55.592;37.460;2022-08-19T01:23:48;10.75;;;6.68;;
58294;SDS011;45705;55.592;37.460;2022-08-19T01:26:16;12.10;;;7.03;;
58294;SDS011;45705;55.592;37.460;2022-08-19T01:28:46;10.27;;;7.20;;
58294;SDS011;45705;55.592;37.460;2022-08-19T01:31:17;12.48;;;7.18;;
58294;SDS011;45705;55.592;37.460;2022-08-19T01:33:47;11.40;;;7.22;;
58294;SDS011;45705;55.592;37.460;2022-08-19T01:36:39;9.60;;;6.47;;
58294;SDS011;45705;55.592;37.460;2022-08-19T01:39:09;10.20;;;6.20;;
58294;SDS011;45705;55.592;37.460;2022-08-19T01:41:38;13.35;;;6.30;;
58294;SDS011;45705;55.592;37.460;2022-08-19T01:44:04;14.98;;;5.88;;
58294;SDS011;45705;55.592;37.460;2022-08-19T01:46:31;15.13;;;6.22;;
58294;SDS011;45705;55.592;37.460;2022-08-19T01:49:06;15.38;;;5.95;;
58294;SDS011;45705;55.592;37.460;2022-08-19T01:51:36;7.22;;;5.60;;
58294;SDS011;45705;55.592;37.460;2022-08-19T01:54:08;17.45;;;5.50;;
58294;SDS011;45705;55.592;37.460;2022-08-19T01:56:37;12.80;;;5.90;;
58294;SDS011;45705;55.592;37.460;2022-08-19T01:59:05;8.10;;;5.57;;
58294;SDS011;45705;55.592;37.460;2022-08-19T02:01:38;8.00;;;5.57;;
58294;SDS011;45705;55.592;37.460;2022-08-19T02:04:06;10.88;;;5.55;;
58294;SDS011;45705;55.592;37.460;2022-08-19T02:06:32;9.93;;;5.20;;
58294;SDS011;45705;55.592;37.460;2022-08-19T02:09:02;10.10;;;5.65;;
58294;SDS011;45705;55.592;37.460;2022-08-19T02:11:33;13.30;;;5.28;;
58294;SDS011;45705;55.592;37.460;2022-08-19T02:14:04;12.38;;;5.53;;
58294;SDS011;45705;55.592;37.460;2022-08-19T02:16:33;11.52;;;4.90;;
58294;SDS011;45705;55.592;37.460;2022-08-19T02:19:00;11.13;;;4.88;;
58294;SDS011;45705;55.592;37.460;2022-08-19T02:21:27;8.45;;;5.28;;
58294;SDS011;45705;55.592;37.460;2022-08-19T02:23:54;9.68;;;5.18;;
58294;SDS011;45705;55.592;37.460;2022-08-19T02:26:21;7.10;;;4.40;;
58294;SDS011;45705;55.592;37.460;2022-08-19T02:28:47;11.43;;;4.80;;
58294;SDS011;45705;55.592;37.460;2022-08-19T02:31:14;7.82;;;5.40;;
58294;SDS011;45705;55.592;37.460;2022-08-19T02:33:46;10.05;;;5.07;;
58294;SDS011;45705;55.592;37.460;2022-08-19T02:36:13;9.73;;;4.72;;
58294;SDS011;45705;55.592;37.460;2022-08-19T02:38:42;6.65;;;4.50;;
58294;SDS011;45705;55.592;37.460;2022-08-19T02:41:16;9.40;;;4.85;;
58294;SDS011;45705;55.592;37.460;2022-08-19T02:43:43;8.70;;;4.18;;
58294;SDS011;45705;55.592;37.460;2022-08-19T02:46:13;8.95;;;3.95;;
58294;SDS011;45705;55.592;37.460;2022-08-19T02:48:43;13.80;;;4.15;;
58294;SDS011;45705;55.592;37.460;2022-08-19T02:51:09;10.73;;;3.97;;
58294;SDS011;45705;55.592;37.460;2022-08-19T02:53:43;10.77;;;4.20;;
58294;SDS011;45705;55.592;37.460;2022-08-19T02:56:09;12.57;;;3.80;;
58294;SDS011;45705;55.592;37.460;2022-08-19T02:58:38;10.13;;;3.75;;
58294;SDS011;45705;55.592;37.460;2022-08-19T03:01:04;7.07;;;3.88;;
58294;SDS011;45705;55.592;37.460;2022-08-19T03:03:30;8.02;;;4.50;;
58294;SDS011;45705;55.592;37.460;2022-08-19T03:06:10;8.57;;;3.90;;
58294;SDS011;45705;55.592;37.460;2022-08-19T03:08:39;13.95;;;4.53;;
58294;SDS011;45705;55.592;37.460;2022-08-19T03:11:14;8.68;;;3.58;;
58294;SDS011;45705;55.592;37.460;2022-08-19T03:13:47;14.27;;;4.28;;
58294;SDS011;45705;55.592;37.460;2022-08-19T03:16:17;7.07;;;4.53;;
58294;SDS011;45705;55.592;37.460;2022-08-19T03:18:46;15.57;;;4.50;;
58294;SDS011;45705;55.592;37.460;2022-08-19T03:21:16;6.45;;;4.25;;
58294;SDS011;45705;55.592;37.460;2022-08-19T03:23:46;9.68;;;3.97;;
58294;SDS011;45705;55.592;37.460;2022-08-19T03:26:12;10.15;;;4.05;;
58294;SDS011;45705;55.592;37.460;2022-08-19T03:28:42;11.20;;;3.95;;
58294;SDS011;45705;55.592;37.460;2022-08-19T03:31:13;6.97;;;3.97;;
58294;SDS011;45705;55.592;37.460;2022-08-19T03:33:39;10.80;;;4.20;;
58294;SDS011;45705;55.592;37.460;2022-08-19T03:36:09;5.18;;;3.55;;
58294;SDS011;45705;55.592;37.460;2022-08-19T03:38:44;12.13;;;4.20;;
58294;SDS011;45705;55.592;37.460;2022-08-19T03:41:25;9.68;;;4.20;;
58294;SDS011;45705;55.592;37.460;2022-08-19T03:43:58;6.55;;;4.28;;
58294;SDS011;45705;55.592;37.460;2022-08-19T03:46:28;7.65;;;4.60;;
58294;SDS011;45705;55.592;37.460;2022-08-19T03:48:55;14.20;;;4.55;;
58294;SDS011;45705;55.592;37.460;2022-08-19T03:51:27;10.32;;;3.97;;
58294;SDS011;45705;55.592;37.460;2022-08-19T03:53:56;10.98;;;3.90;;
58294;SDS011;45705;55.592;37.460;2022-08-19T03:56:26;18.25;;;4.70;;
58294;SDS011;45705;55.592;37.460;2022-08-19T03:58:53;8.10;;;4.25;;
58294;SDS011;45705;55.592;37.460;2022-08-19T04:01:25;9.90;;;4.70;;
58294;SDS011;45705;55.592;37.460;2022-08-19T04:03:53;12.15;;;4.80;;
58294;SDS011;45705;55.592;37.460;2022-08-19T04:06:24;10.65;;;4.55;;
58294;SDS011;45705;55.592;37.460;2022-08-19T04:08:54;13.48;;;4.68;;
58294;SDS011;45705;55.592;37.460;2022-08-19T04:11:23;11.30;;;5.13;;
58294;SDS011;45705;55.592;37.460;2022-08-19T04:13:51;12.07;;;4.82;;
58294;SDS011;45705;55.592;37.460;2022-08-19T04:16:19;17.65;;;4.68;;
58294;SDS011;45705;55.592;37.460;2022-08-19T04:18:54;15.55;;;4.97;;
58294;SDS011;45705;55.592;37.460;2022-08-19T04:21:23;9.90;;;4.88;;
58294;SDS011;45705;55.592;37.460;2022-08-19T04:23:51;11.73;;;5.03;;
58294;SDS011;45705;55.592;37.460;2022-08-19T04:26:19;10.73;;;4.80;;
58294;SDS011;45705;55.592;37.460;2022-08-19T04:28:47;15.43;;;5.25;;
58294;SDS011;45705;55.592;37.460;2022-08-19T04:31:18;14.05;;;4.80;;
58294;SDS011;45705;55.592;37.460;2022-08-19T04:33:47;14.27;;;5.10;;
58294;SDS011;45705;55.592;37.460;2022-08-19T04:36:16;12.10;;;5.40;;
58294;SDS011;45705;55.592;37.460;2022-08-19T04:38:47;12.80;;;5.10;;
58294;SDS011;45705;55.592;37.460;2022-08-19T04:41:14;9.68;;;4.43;;
58294;SDS011;45705;55.592;37.460;2022-08-19T04:44:06;17.13;;;4.75;;
58294;SDS011;45705;55.592;37.460;2022-08-19T04:46:35;13.48;;;4.90;;
58294;SDS011;45705;55.592;37.460;2022-08-19T04:49:02;11.00;;;4.75;;
58294;SDS011;45705;55.592;37.460;2022-08-19T04:51:33;12.10;;;5.00;;
58294;SDS011;45705;55.592;37.460;2022-08-19T04:54:02;9.95;;;4.32;;
58294;SDS011;45705;55.592;37.460;2022-08-19T04:56:29;10.45;;;4.68;;
58294;SDS011;45705;55.592;37.460;2022-08-19T04:58:57;11.02;;;4.55;;
58294;SDS011;45705;55.592;37.460;2022-08-19T05:01:28;8.40;;;4.57;;
58294;SDS011;45705;55.592;37.460;2022-08-19T05:04:01;7.55;;;4.80;;
58294;SDS011;45705;55.592;37.460;2022-08-19T05:06:30;10.93;;;4.80;;
58294;SDS011;45705;55.592;37.460;2022-08-19T05:08:59;10.45;;;4.32;;
58294;SDS011;45705;55.592;37.460;2022-08-19T05:11:30;9.70;;;4.57;;
58294;SDS011;45705;55.592;37.460;2022-08-19T05:13:59;13.02;;;4.65;;
58294;SDS011;45705;55.592;37.460;2022-08-19T05:16:25;12.68;;;4.10;;
58294;SDS011;45705;55.592;37.460;2022-08-19T05:18:52;7.40;;;4.03;;
58294;SDS011;45705;55.592;37.460;2022-08-19T05:21:39;16.80;;;5.47;;
58294;SDS011;45705;55.592;37.460;2022-08-19T05:24:24;13.93;;;4.75;;
58294;SDS011;45705;55.592;37.460;2022-08-19T05:26:50;10.52;;;4.38;;
58294;SDS011;45705;55.592;37.460;2022-08-19T05:29:18;8.13;;;4.57;;
58294;SDS011;45705;55.592;37.460;2022-08-19T05:34:14;9.70;;;5.03;;
58294;SDS011;45705;55.592;37.460;2022-08-19T05:36:49;12.00;;;4.95;;
58294;SDS011;45705;55.592;37.460;2022-08-19T05:39:20;12.50;;;5.13;;
58294;SDS011;45705;55.592;37.460;2022-08-19T05:41:57;15.65;;;4.70;;
58294;SDS011;45705;55.592;37.460;2022-08-19T05:44:26;5.93;;;4.38;;
58294;SDS011;45705;55.592;37.460;2022-08-19T05:46:59;10.43;;;4.65;;
58294;SDS011;45705;55.592;37.460;2022-08-19T05:51:57;11.88;;;4.07;;
58294;SDS011;45705;55.592;37.460;2022-08-19T05:54:24;12.82;;;4.75;;
58294;SDS011;45705;55.592;37.460;2022-08-19T05:56:50;12.40;;;5.10;;
58294;SDS011;45705;55.592;37.460;2022-08-19T05:59:17;17.88;;;5.25;;
58294;SDS011;45705;55.592;37.460;2022-08-19T06:01:49;11.43;;;5.03;;
58294;SDS011;45705;55.592;37.460;2022-08-19T06:04:23;16.30;;;5.32;;
58294;SDS011;45705;55.592;37.460;2022-08-19T06:06:50;13.93;;;5.50;;
58294;SDS011;45705;55.592;37.460;2022-08-19T06:09:20;12.05;;;5.38;;
58294;SDS011;45705;55.592;37.460;2022-08-19T06:11:49;8.37;;;5.00;;
58294;SDS011;45705;55.592;37.460;2022-08-19T06:14:21;14.15;;;5.28;;
58294;SDS011;45705;55.592;37.460;2022-08-19T06:16:52;15.02;;;5.50;;
58294;SDS011;45705;55.592;37.460;2022-08-19T06:19:18;11.60;;;6.07;;
58294;SDS011;45705;55.592;37.460;2022-08-19T06:21:46;15.55;;;6.43;;
58294;SDS011;45705;55.592;37.460;2022-08-19T06:24:17;14.18;;;6.05;;
58294;SDS011;45705;55.592;37.460;2022-08-19T06:26:52;12.77;;;6.47;;
58294;SDS011;45705;55.592;37.460;2022-08-19T06:29:21;16.88;;;6.45;;
58294;SDS011;45705;55.592;37.460;2022-08-19T06:31:54;18.60;;;6.30;;
58294;SDS011;45705;55.592;37.460;2022-08-19T06:34:23;11.43;;;5.68;;
58294;SDS011;45705;55.592;37.460;2022-08-19T06:36:51;16.58;;;6.35;;
58294;SDS011;45705;55.592;37.460;2022-08-19T06:39:18;17.40;;;6.10;;
58294;SDS011;45705;55.592;37.460;2022-08-19T06:41:48;16.70;;;6.95;;
58294;SDS011;45705;55.592;37.460;2022-08-19T06:44:19;10.80;;;6.95;;
58294;SDS011;45705;55.592;37.460;2022-08-19T06:46:46;19.00;;;6.50;;
58294;SDS011;45705;55.592;37.460;2022-08-19T06:49:17;13.77;;;6.95;;
58294;SDS011;45705;55.592;37.460;2022-08-19T06:51:43;15.25;;;6.32;;
58294;SDS011;45705;55.592;37.460;2022-08-19T06:54:13;16.20;;;6.75;;
58294;SDS011;45705;55.592;37.460;2022-08-19T06:56:39;18.30;;;6.70;;
58294;SDS011;45705;55.592;37.460;2022-08-19T06:59:06;14.95;;;6.47;;
58294;SDS011;45705;55.592;37.460;2022-08-19T07:01:37;18.45;;;7.03;;
58294;SDS011;45705;55.592;37.460;2022-08-19T07:04:14;16.00;;;7.30;;
58294;SDS011;45705;55.592;37.460;2022-08-19T07:06:45;10.25;;;6.82;;
58294;SDS011;45705;55.592;37.460;2022-08-19T07:09:12;14.75;;;5.78;;
58294;SDS011;45705;55.592;37.460;2022-08-19T07:11:49;14.77;;;7.20;;
58294;SDS011;45705;55.592;37.460;2022-08-19T07:14:18;8.57;;;4.43;;
58294;SDS011;45705;55.592;37.460;2022-08-19T07:16:46;11.38;;;6.07;;
58294;SDS011;45705;55.592;37.460;2022-08-19T07:19:14;13.88;;;5.18;;
58294;SDS011;45705;55.592;37.460;2022-08-19T07:21:43;8.52;;;4.80;;
58294;SDS011;45705;55.592;37.460;2022-08-19T07:24:12;18.65;;;5.63;;
58294;SDS011;45705;55.592;37.460;2022-08-19T07:26:40;10.23;;;5.18;;
58294;SDS011;45705;55.592;37.460;2022-08-19T07:29:09;10.30;;;5.20;;
58294;SDS011;45705;55.592;37.460;2022-08-19T07:31:43;7.63;;;4.55;;
58294;SDS011;45705;55.592;37.460;2022-08-19T07:34:10;7.15;;;4.53;;
58294;SDS011;45705;55.592;37.460;2022-08-19T07:36:41;13.30;;;4.63;;
58294;SDS011;45705;55.592;37.460;2022-08-19T07:39:09;14.90;;;5.18;;
58294;SDS011;45705;55.592;37.460;2022-08-19T07:41:44;11.60;;;4.70;;
58294;SDS011;45705;55.592;37.460;2022-08-19T07:44:11;12.48;;;4.70;;
58294;SDS011;45705;55.592;37.460;2022-08-19T07:46:38;14.32;;;5.20;;
58294;SDS011;45705;55.592;37.460;2022-08-19T07:49:17;8.00;;;4.55;;
58294;SDS011;45705;55.592;37.460;2022-08-19T07:51:46;10.38;;;4.88;;
58294;SDS011;45705;55.592;37.460;2022-08-19T07:54:13;10.93;;;4.70;;
58294;SDS011;45705;55.592;37.460;2022-08-19T07:56:39;10.40;;;4.25;;
58294;SDS011;45705;55.592;37.460;2022-08-19T07:59:04;12.88;;;3.92;;
58294;SDS011;45705;55.592;37.460;2022-08-19T08:01:34;8.07;;;3.55;;
58294;SDS011;45705;55.592;37.460;2022-08-19T08:04:00;14.60;;;5.03;;
58294;SDS011;45705;55.592;37.460;2022-08-19T08:06:45;9.82;;;3.83;;
58294;SDS011;45705;55.592;37.460;2022-08-19T08:09:33;13.82;;;3.65;;
58294;SDS011;45705;55.592;37.460;2022-08-19T08:12:06;5.82;;;3.42;;
58294;SDS011;45705;55.592;37.460;2022-08-19T08:14:39;8.35;;;3.30;;
58294;SDS011;45705;55.592;37.460;2022-08-19T08:17:13;12.50;;;3.47;;
58294;SDS011;45705;55.592;37.460;2022-08-19T08:19:43;10.13;;;4.53;;
58294;SDS011;45705;55.592;37.460;2022-08-19T08:22:11;18.03;;;4.97;;
58294;SDS011;45705;55.592;37.460;2022-08-19T08:25:11;5.70;;;2.97;;
58294;SDS011;45705;55.592;37.460;2022-08-19T08:27:40;6.60;;;3.22;;
58294;SDS011;45705;55.592;37.460;2022-08-19T08:30:14;7.72;;;3.30;;
58294;SDS011;45705;55.592;37.460;2022-08-19T08:32:50;8.77;;;4.07;;
58294;SDS011;45705;55.592;37.460;2022-08-19T08:35:18;9.50;;;3.22;;
58294;SDS011;45705;55.592;37.460;2022-08-19T08:37:46;7.70;;;3.40;;
58294;SDS011;45705;55.592;37.460;2022-08-19T08:43:10;15.60;;;5.28;;
58294;SDS011;45705;55.592;37.460;2022-08-19T08:45:44;8.40;;;6.45;;
58294;SDS011;45705;55.592;37.460;2022-08-19T08:48:22;8.38;;;4.20;;
58294;SDS011;45705;55.592;37.460;2022-08-19T08:50:52;10.48;;;4.10;;
58294;SDS011;45705;55.592;37.460;2022-08-19T08:53:20;9.85;;;4.15;;
58294;SDS011;45705;55.592;37.460;2022-08-19T08:55:46;8.80;;;4.05;;
58294;SDS011;45705;55.592;37.460;2022-08-19T08:58:19;7.60;;;3.95;;
58294;SDS011;45705;55.592;37.460;2022-08-19T09:00:56;9.88;;;4.00;;
58294;SDS011;45705;55.592;37.460;2022-08-19T09:03:23;7.60;;;3.83;;
58294;SDS011;45705;55.592;37.460;2022-08-19T09:06:01;14.80;;;4.03;;
58294;SDS011;45705;55.592;37.460;2022-08-19T09:16:57;7.25;;;3.22;;
58294;SDS011;45705;55.592;37.460;2022-08-19T09:19:23;7.45;;;3.50;;
58294;SDS011;45705;55.592;37.460;2022-08-19T09:21:51;12.65;;;3.95;;
58294;SDS011;45705;55.592;37.460;2022-08-19T09:24:17;15.07;;;3.60;;
58294;SDS011;45705;55.592;37.460;2022-08-19T09:26:43;4.47;;;2.85;;
58294;SDS011;45705;55.592;37.460;2022-08-19T09:29:09;13.25;;;3.65;;
58294;SDS011;45705;55.592;37.460;2022-08-19T09:31:35;8.40;;;3.28;;
58294;SDS011;45705;55.592;37.460;2022-08-19T09:34:02;7.18;;;3.72;;
58294;SDS011;45705;55.592;37.460;2022-08-19T09:36:31;4.40;;;3.38;;
58294;SDS011;45705;55.592;37.460;2022-08-19T09:39:02;7.47;;;3.83;;
58294;SDS011;45705;55.592;37.460;2022-08-19T09:41:29;11.82;;;3.60;;
58294;SDS011;45705;55.592;37.460;2022-08-19T09:43:56;13.05;;;3.50;;
58294;SDS011;45705;55.592;37.460;2022-08-19T09:46:23;6.70;;;4.18;;
58294;SDS011;45705;55.592;37.460;2022-08-19T09:48:51;12.75;;;4.47;;
58294;SDS011;45705;55.592;37.460;2022-08-19T09:51:22;12.32;;;3.60;;
58294;SDS011;45705;55.592;37.460;2022-08-19T09:53:50;7.97;;;4.43;;
58294;SDS011;45705;55.592;37.460;2022-08-19T09:56:19;6.57;;;3.42;;
58294;SDS011;45705;55.592;37.460;2022-08-19T09:58:46;12.87;;;3.73;;
58294;SDS011;45705;55.592;37.460;2022-08-19T10:01:17;10.30;;;3.72;;
58294;SDS011;45705;55.592;37.460;2022-08-19T10:03:49;7.13;;;3.47;;
58294;SDS011;45705;55.592;37.460;2022-08-19T10:06:18;6.95;;;3.05;;
58294;SDS011;45705;55.592;37.460;2022-08-19T10:08:44;7.18;;;3.10;;
58294;SDS011;45705;55.592;37.460;2022-08-19T10:11:12;5.18;;;3.17;;
58294;SDS011;45705;55.592;37.460;2022-08-19T10:13:43;6.88;;;3.67;;
58294;SDS011;45705;55.592;37.460;2022-08-19T10:16:10;15.52;;;3.67;;
58294;SDS011;45705;55.592;37.460;2022-08-19T10:18:38;8.43;;;3.38;;
58294;SDS011;45705;55.592;37.460;2022-08-19T10:21:06;9.02;;;3.28;;
58294;SDS011;45705;55.592;37.460;2022-08-19T10:23:34;18.52;;;3.10;;
58294;SDS011;45705;55.592;37.460;2022-08-19T10:26:04;8.48;;;2.55;;
58294;SDS011;45705;55.592;37.460;2022-08-19T10:28:34;8.68;;;2.85;;
58294;SDS011;45705;55.592;37.460;2022-08-19T10:31:08;9.27;;;2.90;;
58294;SDS011;45705;55.592;37.460;2022-08-19T10:33:38;6.80;;;3.05;;
58294;SDS011;45705;55.592;37.460;2022-08-19T10:36:08;3.65;;;2.83;;
58294;SDS011;45705;55.592;37.460;2022-08-19T10:38:49;8.60;;;3.05;;
58294;SDS011;45705;55.592;37.460;2022-08-19T10:41:17;4.13;;;2.50;;
58294;SDS011;45705;55.592;37.460;2022-08-19T10:43:55;5.60;;;2.47;;
58294;SDS011;45705;55.592;37.460;2022-08-19T10:46:24;12.15;;;3.50;;
58294;SDS011;45705;55.592;37.460;2022-08-19T10:48:52;11.55;;;2.97;;
58294;SDS011;45705;55.592;37.460;2022-08-19T10:51:18;7.22;;;2.67;;
58294;SDS011;45705;55.592;37.460;2022-08-19T10:54:16;4.95;;;2.90;;
58294;SDS011;45705;55.592;37.460;2022-08-19T10:56:42;9.18;;;2.85;;
58294;SDS011;45705;55.592;37.460;2022-08-19T10:59:22;11.70;;;3.38;;
58294;SDS011;45705;55.592;37.460;2022-08-19T11:01:59;4.70;;;2.90;;
58294;SDS011;45705;55.592;37.460;2022-08-19T11:04:26;9.50;;;3.22;;
58294;SDS011;45705;55.592;37.460;2022-08-19T11:06:52;13.00;;;3.20;;
58294;SDS011;45705;55.592;37.460;2022-08-19T11:09:19;12.52;;;3.33;;
58294;SDS011;45705;55.592;37.460;2022-08-19T11:11:46;8.70;;;2.15;;
58294;SDS011;45705;55.592;37.460;2022-08-19T11:14:14;23.98;;;12.48;;
58294;SDS011;45705;55.592;37.460;2022-08-19T11:16:43;7.40;;;2.60;;
58294;SDS011;45705;55.592;37.460;2022-08-19T11:19:11;6.15;;;2.83;;
58294;SDS011;45705;55.592;37.460;2022-08-19T11:21:40;9.07;;;3.25;;
58294;SDS011;45705;55.592;37.460;2022-08-19T11:24:08;5.53;;;2.58;;
58294;SDS011;45705;55.592;37.460;2022-08-19T11:26:38;5.38;;;3.40;;
58294;SDS011;45705;55.592;37.460;2022-08-19T11:29:07;4.30;;;3.30;;
58294;SDS011;45705;55.592;37.460;2022-08-19T11:31:41;5.82;;;3.03;;
58294;SDS011;45705;55.592;37.460;2022-08-19T11:34:09;5.35;;;3.05;;
58294;SDS011;45705;55.592;37.460;2022-08-19T11:36:38;7.03;;;3.10;;
58294;SDS011;45705;55.592;37.460;2022-08-19T11:39:12;18.58;;;3.58;;
58294;SDS011;45705;55.592;37.460;2022-08-19T11:41:40;6.53;;;3.33;;
58294;SDS011;45705;55.592;37.460;2022-08-19T11:44:07;4.07;;;2.50;;
58294;SDS011;45705;55.592;37.460;2022-08-19T11:46:33;6.47;;;3.08;;
58294;SDS011;45705;55.592;37.460;2022-08-19T11:49:00;4.60;;;3.80;;
58294;SDS011;45705;55.592;37.460;2022-08-19T11:51:31;5.32;;;3.20;;
58294;SDS011;45705;55.592;37.460;2022-08-19T11:53:57;7.68;;;3.20;;
58294;SDS011;45705;55.592;37.460;2022-08-19T11:56:24;7.28;;;3.10;;
58294;SDS011;45705;55.592;37.460;2022-08-19T11:58:52;7.97;;;2.80;;
58294;SDS011;45705;55.592;37.460;2022-08-19T12:01:21;9.98;;;3.28;;
58294;SDS011;45705;55.592;37.460;2022-08-19T12:03:49;4.18;;;2.70;;
58294;SDS011;45705;55.592;37.460;2022-08-19T12:06:20;11.20;;;4.07;;
58294;SDS011;45705;55.592;37.460;2022-08-19T12:08:51;14.32;;;4.15;;
58294;SDS011;45705;55.592;37.460;2022-08-19T12:11:17;7.03;;;3.70;;
58294;SDS011;45705;55.592;37.460;2022-08-19T12:13:43;7.63;;;4.53;;
58294;SDS011;45705;55.592;37.460;2022-08-19T12:16:16;7.40;;;4.20;;
58294;SDS011;45705;55.592;37.460;2022-08-19T12:18:44;10.32;;;3.83;;
58294;SDS011;45705;55.592;37.460;2022-08-19T12:21:15;13.35;;;4.60;;
58294;SDS011;45705;55.592;37.460;2022-08-19T12:23:42;11.73;;;4.57;;
58294;SDS011;45705;55.592;37.460;2022-08-19T12:26:14;13.10;;;5.32;;
58294;SDS011;45705;55.592;37.460;2022-08-19T12:28:45;10.73;;;4.60;;
58294;SDS011;45705;55.592;37.460;2022-08-19T12:31:12;11.80;;;5.05;;
58294;SDS011;45705;55.592;37.460;2022-08-19T12:33:40;11.02;;;4.30;;
58294;SDS011;45705;55.592;37.460;2022-08-19T12:36:11;10.45;;;4.63;;
58294;SDS011;45705;55.592;37.460;2022-08-19T12:41:05;7.78;;;3.78;;
58294;SDS011;45705;55.592;37.460;2022-08-19T12:43:33;10.82;;;3.78;;
58294;SDS011;45705;55.592;37.460;2022-08-19T12:46:00;15.48;;;4.70;;
58294;SDS011;45705;55.592;37.460;2022-08-19T12:48:28;13.50;;;4.35;;
58294;SDS011;45705;55.592;37.460;2022-08-19T12:50:57;9.15;;;3.85;;
58294;SDS011;45705;55.592;37.460;2022-08-19T12:53:27;10.32;;;4.30;;
58294;SDS011;45705;55.592;37.460;2022-08-19T12:55:56;11.23;;;4.20;;
58294;SDS011;45705;55.592;37.460;2022-08-19T12:58:25;13.85;;;3.92;;
58294;SDS011;45705;55.592;37.460;2022-08-19T13:00:52;19.55;;;4.47;;
58294;SDS011;45705;55.592;37.460;2022-08-19T13:03:20;9.98;;;5.57;;
58294;SDS011;45705;55.592;37.460;2022-08-19T13:05:55;5.75;;;3.95;;
58294;SDS011;45705;55.592;37.460;2022-08-19T13:08:21;13.20;;;4.82;;
58294;SDS011;45705;55.592;37.460;2022-08-19T13:10:46;11.43;;;4.00;;
58294;SDS011;45705;55.592;37.460;2022-08-19T13:13:12;5.78;;;3.60;;
58294;SDS011;45705;55.592;37.460;2022-08-19T13:15:39;9.60;;;4.63;;
58294;SDS011;45705;55.592;37.460;2022-08-19T13:18:06;10.27;;;3.75;;
58294;SDS011;45705;55.592;37.460;2022-08-19T13:20:38;12.55;;;4.28;;
58294;SDS011;45705;55.592;37.460;2022-08-19T13:23:08;9.23;;;3.92;;
58294;SDS011;45705;55.592;37.460;2022-08-19T13:25:36;9.85;;;3.55;;
58294;SDS011;45705;55.592;37.460;2022-08-19T13:28:02;14.57;;;3.80;;
58294;SDS011;45705;55.592;37.460;2022-08-19T13:30:29;15.52;;;4.20;;
58294;SDS011;45705;55.592;37.460;2022-08-19T13:33:13;13.23;;;4.53;;
58294;SDS011;45705;55.592;37.460;2022-08-19T13:35:44;11.80;;;4.53;;
58294;SDS011;45705;55.592;37.460;2022-08-19T13:38:14;11.10;;;4.90;;
58294;SDS011;45705;55.592;37.460;2022-08-19T13:40:44;9.50;;;5.88;;
58294;SDS011;45705;55.592;37.460;2022-08-19T13:43:11;13.95;;;6.55;;
58294;SDS011;45705;55.592;37.460;2022-08-19T13:45:37;14.10;;;9.98;;
58294;SDS011;45705;55.592;37.460;2022-08-19T13:48:03;17.33;;;10.25;;
58294;SDS011;45705;55.592;37.460;2022-08-19T13:50:35;20.15;;;11.85;;
58294;SDS011;45705;55.592;37.460;2022-08-19T13:53:07;24.90;;;13.07;;
58294;SDS011;45705;55.592;37.460;2022-08-19T13:55:34;24.63;;;12.93;;
58294;SDS011;45705;55.592;37.460;2022-08-19T13:58:01;20.45;;;12.70;;
58294;SDS011;45705;55.592;37.460;2022-08-19T14:00:28;18.60;;;12.35;;
58294;SDS011;45705;55.592;37.460;2022-08-19T14:02:57;18.77;;;13.18;;
58294;SDS011;45705;55.592;37.460;2022-08-19T14:05:24;19.00;;;12.50;;
58294;SDS011;45705;55.592;37.460;2022-08-19T14:07:51;21.10;;;13.80;;
58294;SDS011;45705;55.592;37.460;2022-08-19T14:10:18;21.80;;;14.20;;
58294;SDS011;45705;55.592;37.460;2022-08-19T14:12:46;26.55;;;14.82;;
58294;SDS011;45705;55.592;37.460;2022-08-19T14:15:13;22.67;;;14.00;;
58294;SDS011;45705;55.592;37.460;2022-08-19T14:17:42;14.88;;;11.85;;
58294;SDS011;45705;55.592;37.460;2022-08-19T14:20:10;21.70;;;12.77;;
58294;SDS011;45705;55.592;37.460;2022-08-19T14:25:05;18.40;;;10.82;;
58294;SDS011;45705;55.592;37.460;2022-08-19T14:27:38;19.15;;;12.95;;
58294;SDS011;45705;55.592;37.460;2022-08-19T14:30:06;20.20;;;12.43;;
58294;SDS011;45705;55.592;37.460;2022-08-19T14:32:34;19.15;;;11.13;;
58294;SDS011;45705;55.592;37.460;2022-08-19T14:35:03;27.45;;;12.43;;
58294;SDS011;45705;55.592;37.460;2022-08-19T14:37:30;20.98;;;12.07;;
58294;SDS011;45705;55.592;37.460;2022-08-19T14:39:56;20.40;;;10.35;;
58294;SDS011;45705;55.592;37.460;2022-08-19T14:42:22;16.13;;;9.80;;
58294;SDS011;45705;55.592;37.460;2022-08-19T14:44:47;19.40;;;10.60;;
58294;SDS011;45705;55.592;37.460;2022-08-19T14:47:13;17.60;;;10.82;;
58294;SDS011;45705;55.592;37.460;2022-08-19T14:49:39;23.17;;;12.52;;
58294;SDS011;45705;55.592;37.460;2022-08-19T14:52:07;23.15;;;12.30;;
58294;SDS011;45705;55.592;37.460;2022-08-19T14:54:32;18.55;;;13.23;;
58294;SDS011;45705;55.592;37.460;2022-08-19T14:57:06;21.70;;;12.38;;
58294;SDS011;45705;55.592;37.460;2022-08-19T14:59:33;16.42;;;11.05;;
58294;SDS011;45705;55.592;37.460;2022-08-19T15:02:00;18.20;;;11.52;;
58294;SDS011;45705;55.592;37.460;2022-08-19T15:04:25;15.77;;;10.10;;